sensor_id;sensor_type;location;lat;lon;timestamp;pressure;altitude;pressure_sealevel;temperature;humidity
68994;BME280;56054;50.968;5.816;2023-02-14T00:00:38;102631.34;;;4.22;100.00
68994;BME280;56054;50.968;5.816;2023-02-14T00:03:55;102627.09;;;4.30;100.00
68994;BME280;56054;50.968;5.816;2023-02-14T00:07:08;102625.78;;;4.34;100.00
68994;BME280;56054;50.968;5.816;2023-02-14T00:10:18;102624.66;;;4.32;100.00
68994;BME280;56054;50.968;5.816;2023-02-14T00:13:42;102616.44;;;4.27;100.00
68994;BME280;56054;50.968;5.816;2023-02-14T00:17:00;102626.19;;;4.01;100.00
68994;BME280;56054;50.968;5.816;2023-02-14T00:20:12;102627.28;;;4.17;100.00
68994;BME280;56054;50.968;5.816;2023-02-14T00:23:22;102628.19;;;4.25;100.00
68994;BME280;56054;50.968;5.816;2023-02-14T00:26:35;102627.66;;;4.13;100.00
68994;BME280;56054;50.968;5.816;2023-02-14T00:29:48;102620.34;;;3.80;100.00
68994;BME280;56054;50.968;5.816;2023-02-14T00:33:12;102622.69;;;3.72;100.00
68994;BME280;56054;50.968;5.816;2023-02-14T00:36:29;102622.16;;;3.81;100.00
68994;BME280;56054;50.968;5.816;2023-02-14T00:39:51;102617.00;;;3.81;100.00
68994;BME280;56054;50.968;5.816;2023-02-14T00:43:07;102611.13;;;3.90;100.00
68994;BME280;56054;50.968;5.816;2023-02-14T00:46:19;102605.97;;;3.68;100.00
68994;BME280;56054;50.968;5.816;2023-02-14T00:49:29;102621.41;;;3.75;100.00
68994;BME280;56054;50.968;5.816;2023-02-14T00:52:47;102620.69;;;3.69;100.00
68994;BME280;56054;50.968;5.816;2023-02-14T00:56:10;102613.88;;;3.77;100.00
68994;BME280;56054;50.968;5.816;2023-02-14T00:59:19;102619.78;;;3.69;100.00
68994;BME280;56054;50.968;5.816;2023-02-14T01:02:33;102625.81;;;3.62;100.00
68994;BME280;56054;50.968;5.816;2023-02-14T01:05:58;102619.56;;;3.74;100.00
68994;BME280;56054;50.968;5.816;2023-02-14T01:09:26;102613.88;;;3.70;100.00
68994;BME280;56054;50.968;5.816;2023-02-14T01:12:35;102619.56;;;3.74;100.00
68994;BME280;56054;50.968;5.816;2023-02-14T01:15:56;102620.50;;;3.75;100.00
68994;BME280;56054;50.968;5.816;2023-02-14T01:19:03;102621.41;;;3.75;100.00
68994;BME280;56054;50.968;5.816;2023-02-14T01:22:10;102620.47;;;3.68;100.00
68994;BME280;56054;50.968;5.816;2023-02-14T01:25:17;102605.97;;;3.68;100.00
68994;BME280;56054;50.968;5.816;2023-02-14T01:28:25;102603.03;;;3.72;100.00
68994;BME280;56054;50.968;5.816;2023-02-14T01:31:34;102616.81;;;3.65;100.00
68994;BME280;56054;50.968;5.816;2023-02-14T01:34:42;102612.78;;;3.68;100.00
68994;BME280;56054;50.968;5.816;2023-02-14T01:37:51;102597.34;;;3.68;100.00
68994;BME280;56054;50.968;5.816;2023-02-14T01:40:58;102600.66;;;3.67;100.00
68994;BME280;56054;50.968;5.816;2023-02-14T01:47:37;102600.47;;;3.58;100.00
68994;BME280;56054;50.968;5.816;2023-02-14T01:50:53;102605.22;;;3.55;100.00
68994;BME280;56054;50.968;5.816;2023-02-14T01:54:01;102600.28;;;3.49;100.00
68994;BME280;56054;50.968;5.816;2023-02-14T01:57:11;102611.84;;;3.53;100.00
68994;BME280;56054;50.968;5.816;2023-02-14T02:00:21;102602.47;;;3.46;100.00
68994;BME280;56054;50.968;5.816;2023-02-14T02:03:33;102600.84;;;3.47;100.00
68994;BME280;56054;50.968;5.816;2023-02-14T02:06:50;102592.72;;;3.43;100.00
68994;BME280;56054;50.968;5.816;2023-02-14T02:10:05;102594.00;;;3.33;100.00
68994;BME280;56054;50.968;5.816;2023-02-14T02:13:17;102597.13;;;3.37;100.00
68994;BME280;56054;50.968;5.816;2023-02-14T02:30:56;102594.53;;;3.23;100.00
68994;BME280;56054;50.968;5.816;2023-02-14T02:48:15;102591.59;;;3.20;100.00
68994;BME280;56054;50.968;5.816;2023-02-14T02:52:00;102593.22;;;3.05;100.00
68994;BME280;56054;50.968;5.816;2023-02-14T02:59:41;102581.84;;;3.03;100.00
68994;BME280;56054;50.968;5.816;2023-02-14T03:02:57;102590.81;;;3.07;100.00
68994;BME280;56054;50.968;5.816;2023-02-14T03:06:16;102589.84;;;2.92;100.00
68994;BME280;56054;50.968;5.816;2023-02-14T03:16:16;102585.25;;;2.89;100.00
68994;BME280;56054;50.968;5.816;2023-02-14T03:19:45;102581.25;;;2.98;100.00
68994;BME280;56054;50.968;5.816;2023-02-14T03:26:38;102585.63;;;2.92;100.00
68994;BME280;56054;50.968;5.816;2023-02-14T03:33:30;102592.91;;;2.75;100.00
68994;BME280;56054;50.968;5.816;2023-02-14T03:40:50;102594.38;;;2.80;100.00
68994;BME280;56054;50.968;5.816;2023-02-14T03:44:35;102586.34;;;2.84;100.00
68994;BME280;56054;50.968;5.816;2023-02-14T03:48:04;102587.44;;;2.79;100.00
68994;BME280;56054;50.968;5.816;2023-02-14T03:51:24;102591.09;;;2.74;100.00
68994;BME280;56054;50.968;5.816;2023-02-14T03:54:41;102594.19;;;2.71;100.00
68994;BME280;56054;50.968;5.816;2023-02-14T03:58:22;102586.28;;;2.70;100.00
68994;BME280;56054;50.968;5.816;2023-02-14T04:01:38;102590.16;;;2.73;100.00
68994;BME280;56054;50.968;5.816;2023-02-14T04:04:57;102586.50;;;2.71;100.00
68994;BME280;56054;50.968;5.816;2023-02-14T04:08:05;102598.19;;;2.62;100.00
68994;BME280;56054;50.968;5.816;2023-02-14T04:11:21;102582.19;;;2.57;100.00
68994;BME280;56054;50.968;5.816;2023-02-14T04:14:38;102595.81;;;2.64;100.00
68994;BME280;56054;50.968;5.816;2023-02-14T04:17:54;102586.25;;;2.63;100.00
68994;BME280;56054;50.968;5.816;2023-02-14T04:21:06;102587.28;;;2.50;100.00
68994;BME280;56054;50.968;5.816;2023-02-14T04:24:15;102583.69;;;2.63;100.00
68994;BME280;56054;50.968;5.816;2023-02-14T04:27:23;102579.66;;;2.65;100.00
68994;BME280;56054;50.968;5.816;2023-02-14T04:30:52;102580.25;;;2.69;100.00
68994;BME280;56054;50.968;5.816;2023-02-14T04:34:04;102573.09;;;2.67;100.00
68994;BME280;56054;50.968;5.816;2023-02-14T04:37:26;102582.41;;;2.59;100.00
68994;BME280;56054;50.968;5.816;2023-02-14T04:40:35;102576.72;;;2.62;100.00
68994;BME280;56054;50.968;5.816;2023-02-14T04:43:57;102575.22;;;2.49;100.00
68994;BME280;56054;50.968;5.816;2023-02-14T04:47:09;102581.75;;;2.40;100.00
68994;BME280;56054;50.968;5.816;2023-02-14T04:50:42;102567.28;;;2.41;100.00
68994;BME280;56054;50.968;5.816;2023-02-14T04:54:19;102565.28;;;2.45;100.00
68994;BME280;56054;50.968;5.816;2023-02-14T04:57:55;102566.03;;;2.44;100.00
68994;BME280;56054;50.968;5.816;2023-02-14T05:01:23;102561.97;;;2.39;100.00
68994;BME280;56054;50.968;5.816;2023-02-14T05:04:35;102577.34;;;2.39;100.00
68994;BME280;56054;50.968;5.816;2023-02-14T05:08:20;102571.44;;;2.33;100.00
68994;BME280;56054;50.968;5.816;2023-02-14T05:11:37;102558.56;;;2.26;100.00
68994;BME280;56054;50.968;5.816;2023-02-14T05:15:04;102559.69;;;2.28;100.00
68994;BME280;56054;50.968;5.816;2023-02-14T05:18:35;102555.97;;;2.19;100.00
68994;BME280;56054;50.968;5.816;2023-02-14T05:21:58;102560.75;;;2.23;100.00
68994;BME280;56054;50.968;5.816;2023-02-14T05:25:19;102554.91;;;2.24;100.00
68994;BME280;56054;50.968;5.816;2023-02-14T05:28:36;102548.69;;;2.29;100.00
68994;BME280;56054;50.968;5.816;2023-02-14T05:31:52;102548.09;;;2.17;100.00
68994;BME280;56054;50.968;5.816;2023-02-14T05:35:12;102553.34;;;2.11;100.00
68994;BME280;56054;50.968;5.816;2023-02-14T05:38:28;102551.06;;;1.93;100.00
68994;BME280;56054;50.968;5.816;2023-02-14T05:42:06;102548.91;;;2.03;100.00
68994;BME280;56054;50.968;5.816;2023-02-14T05:45:22;102548.06;;;2.10;100.00
68994;BME280;56054;50.968;5.816;2023-02-14T05:48:36;102536.47;;;2.06;100.00
68994;BME280;56054;50.968;5.816;2023-02-14T05:52:03;102542.88;;;2.03;100.00
68994;BME280;56054;50.968;5.816;2023-02-14T05:55:12;102546.03;;;2.07;100.00
68994;BME280;56054;50.968;5.816;2023-02-14T05:58:22;102548.13;;;1.97;100.00
68994;BME280;56054;50.968;5.816;2023-02-14T06:01:35;102556.72;;;1.90;100.00
68994;BME280;56054;50.968;5.816;2023-02-14T06:04:56;102555.41;;;1.87;100.00
68994;BME280;56054;50.968;5.816;2023-02-14T06:08:08;102553.09;;;1.96;100.00
68994;BME280;56054;50.968;5.816;2023-02-14T06:11:15;102556.50;;;1.89;100.00
68994;BME280;56054;50.968;5.816;2023-02-14T06:14:22;102560.84;;;1.83;100.00
68994;BME280;56054;50.968;5.816;2023-02-14T06:17:58;102553.56;;;1.86;100.00
68994;BME280;56054;50.968;5.816;2023-02-14T06:21:35;102555.22;;;1.85;100.00
68994;BME280;56054;50.968;5.816;2023-02-14T06:24:42;102562.69;;;1.57;100.00
68994;BME280;56054;50.968;5.816;2023-02-14T06:27:54;102558.97;;;1.75;100.00
68994;BME280;56054;50.968;5.816;2023-02-14T06:31:04;102556.88;;;1.65;100.00
68994;BME280;56054;50.968;5.816;2023-02-14T06:34:12;102552.25;;;1.82;100.00
68994;BME280;56054;50.968;5.816;2023-02-14T06:37:19;102554.78;;;1.55;100.00
68994;BME280;56054;50.968;5.816;2023-02-14T06:40:27;102559.00;;;1.55;100.00
68994;BME280;56054;50.968;5.816;2023-02-14T06:43:34;102553.06;;;1.68;100.00
68994;BME280;56054;50.968;5.816;2023-02-14T06:46:50;102553.72;;;1.60;100.00
68994;BME280;56054;50.968;5.816;2023-02-14T06:49:59;102548.47;;;1.66;100.00
68994;BME280;56054;50.968;5.816;2023-02-14T06:53:09;102551.50;;;1.56;100.00
68994;BME280;56054;50.968;5.816;2023-02-14T06:56:21;102562.41;;;1.48;100.00
68994;BME280;56054;50.968;5.816;2023-02-14T06:59:33;102554.00;;;1.49;100.00
68994;BME280;56054;50.968;5.816;2023-02-14T07:02:40;102552.22;;;1.55;100.00
68994;BME280;56054;50.968;5.816;2023-02-14T07:05:50;102563.97;;;1.60;100.00
68994;BME280;56054;50.968;5.816;2023-02-14T07:08:57;102562.47;;;1.55;100.00
68994;BME280;56054;50.968;5.816;2023-02-14T07:12:04;102569.63;;;1.58;100.00
68994;BME280;56054;50.968;5.816;2023-02-14T07:15:12;102566.22;;;1.64;100.00
68994;BME280;56054;50.968;5.816;2023-02-14T07:18:19;102572.41;;;1.59;100.00
68994;BME280;56054;50.968;5.816;2023-02-14T07:21:26;102571.66;;;1.60;100.00
68994;BME280;56054;50.968;5.816;2023-02-14T07:24:33;102568.41;;;1.61;100.00
68994;BME280;56054;50.968;5.816;2023-02-14T07:27:56;102569.84;;;1.59;100.00
68994;BME280;56054;50.968;5.816;2023-02-14T07:31:06;102573.22;;;1.73;100.00
68994;BME280;56054;50.968;5.816;2023-02-14T07:34:16;102572.22;;;1.85;100.00
68994;BME280;56054;50.968;5.816;2023-02-14T07:37:23;102571.69;;;1.87;100.00
68994;BME280;56054;50.968;5.816;2023-02-14T07:40:41;102578.09;;;1.84;100.00
68994;BME280;56054;50.968;5.816;2023-02-14T07:43:51;102569.00;;;1.93;100.00
68994;BME280;56054;50.968;5.816;2023-02-14T07:47:07;102577.34;;;1.85;100.00
68994;BME280;56054;50.968;5.816;2023-02-14T07:50:16;102576.34;;;1.97;100.00
68994;BME280;56054;50.968;5.816;2023-02-14T07:53:24;102564.53;;;2.81;100.00
68994;BME280;56054;50.968;5.816;2023-02-14T07:56:31;102567.56;;;3.19;100.00
68994;BME280;56054;50.968;5.816;2023-02-14T07:59:45;102576.03;;;3.33;100.00
68994;BME280;56054;50.968;5.816;2023-02-14T08:02:52;102570.22;;;2.92;100.00
68994;BME280;56054;50.968;5.816;2023-02-14T08:06:01;102574.19;;;2.69;100.00
68994;BME280;56054;50.968;5.816;2023-02-14T08:09:08;102570.84;;;2.63;100.00
68994;BME280;56054;50.968;5.816;2023-02-14T08:12:15;102563.72;;;2.67;100.00
68994;BME280;56054;50.968;5.816;2023-02-14T08:15:22;102575.84;;;2.68;100.00
68994;BME280;56054;50.968;5.816;2023-02-14T08:18:38;102562.63;;;2.65;100.00
68994;BME280;56054;50.968;5.816;2023-02-14T08:21:45;102565.75;;;2.70;100.00
68994;BME280;56054;50.968;5.816;2023-02-14T08:24:52;102565.38;;;2.67;100.00
68994;BME280;56054;50.968;5.816;2023-02-14T08:28:01;102561.00;;;2.80;100.00
68994;BME280;56054;50.968;5.816;2023-02-14T08:31:10;102570.06;;;2.91;100.00
68994;BME280;56054;50.968;5.816;2023-02-14T08:34:17;102566.22;;;3.02;100.00
68994;BME280;56054;50.968;5.816;2023-02-14T08:37:24;102563.69;;;3.09;100.00
68994;BME280;56054;50.968;5.816;2023-02-14T08:40:32;102561.34;;;3.25;100.00
68994;BME280;56054;50.968;5.816;2023-02-14T08:43:40;102560.25;;;3.37;100.00
68994;BME280;56054;50.968;5.816;2023-02-14T08:46:47;102560.41;;;3.46;100.00
68994;BME280;56054;50.968;5.816;2023-02-14T08:49:54;102557.50;;;3.57;100.00
68994;BME280;56054;50.968;5.816;2023-02-14T08:53:05;102557.50;;;3.57;100.00
68994;BME280;56054;50.968;5.816;2023-02-14T08:56:14;102558.63;;;3.66;100.00
68994;BME280;56054;50.968;5.816;2023-02-14T08:59:21;102553.81;;;3.83;100.00
68994;BME280;56054;50.968;5.816;2023-02-14T09:02:28;102554.38;;;3.95;100.00
68994;BME280;56054;50.968;5.816;2023-02-14T09:05:35;102551.94;;;4.11;100.00
68994;BME280;56054;50.968;5.816;2023-02-14T09:08:43;102548.97;;;4.22;100.00
68994;BME280;56054;50.968;5.816;2023-02-14T09:11:50;102556.81;;;4.45;100.00
68994;BME280;56054;50.968;5.816;2023-02-14T09:14:57;102554.75;;;4.50;100.00
68994;BME280;56054;50.968;5.816;2023-02-14T09:18:04;102548.84;;;4.58;100.00
68994;BME280;56054;50.968;5.816;2023-02-14T09:21:16;102551.66;;;4.83;100.00
68994;BME280;56054;50.968;5.816;2023-02-14T09:24:23;102551.44;;;4.96;100.00
68994;BME280;56054;50.968;5.816;2023-02-14T09:27:30;102552.31;;;5.03;100.00
68994;BME280;56054;50.968;5.816;2023-02-14T09:30:40;102561.09;;;5.12;100.00
68994;BME280;56054;50.968;5.816;2023-02-14T09:33:48;102549.03;;;5.27;100.00
68994;BME280;56054;50.968;5.816;2023-02-14T09:36:55;102544.94;;;5.36;100.00
68994;BME280;56054;50.968;5.816;2023-02-14T09:40:02;102551.94;;;5.53;100.00
68994;BME280;56054;50.968;5.816;2023-02-14T09:43:26;102553.84;;;5.70;100.00
68994;BME280;56054;50.968;5.816;2023-02-14T09:46:49;102538.25;;;6.08;100.00
68994;BME280;56054;50.968;5.816;2023-02-14T09:49:58;102537.47;;;6.09;100.00
68994;BME280;56054;50.968;5.816;2023-02-14T09:53:27;102534.31;;;6.11;100.00
68994;BME280;56054;50.968;5.816;2023-02-14T09:57:00;102531.69;;;6.34;100.00
68994;BME280;56054;50.968;5.816;2023-02-14T10:00:33;102537.72;;;6.51;100.00
68994;BME280;56054;50.968;5.816;2023-02-14T10:07:43;102528.53;;;6.77;100.00
68994;BME280;56054;50.968;5.816;2023-02-14T10:11:17;102523.50;;;6.95;100.00
68994;BME280;56054;50.968;5.816;2023-02-14T10:14:29;102521.56;;;7.25;100.00
68994;BME280;56054;50.968;5.816;2023-02-14T10:17:43;102520.97;;;7.28;100.00
68994;BME280;56054;50.968;5.816;2023-02-14T10:20:57;102516.78;;;7.46;100.00
68994;BME280;56054;50.968;5.816;2023-02-14T10:24:30;102514.66;;;7.42;100.00
68994;BME280;56054;50.968;5.816;2023-02-14T10:27:44;102516.91;;;7.63;100.00
68994;BME280;56054;50.968;5.816;2023-02-14T10:34:08;102509.88;;;8.22;100.00
68994;BME280;56054;50.968;5.816;2023-02-14T10:44:12;102509.13;;;8.92;97.95
68994;BME280;56054;50.968;5.816;2023-02-14T10:47:44;102505.34;;;8.97;96.45
68994;BME280;56054;50.968;5.816;2023-02-14T10:51:03;102497.03;;;9.28;94.68
68994;BME280;56054;50.968;5.816;2023-02-14T10:54:26;102496.88;;;9.26;95.07
68994;BME280;56054;50.968;5.816;2023-02-14T10:57:50;102496.25;;;9.65;92.14
68994;BME280;56054;50.968;5.816;2023-02-14T11:04:26;102492.19;;;9.86;95.38
68994;BME280;56054;50.968;5.816;2023-02-14T11:07:36;102491.09;;;9.93;95.07
68994;BME280;56054;50.968;5.816;2023-02-14T11:11:15;102484.44;;;9.77;95.46
68994;BME280;56054;50.968;5.816;2023-02-14T11:14:44;102484.13;;;10.02;89.33
68994;BME280;56054;50.968;5.816;2023-02-14T11:18:16;102480.66;;;10.20;81.38
68994;BME280;56054;50.968;5.816;2023-02-14T11:21:36;102477.81;;;10.55;80.48
68994;BME280;56054;50.968;5.816;2023-02-14T11:24:43;102478.91;;;10.67;82.71
68994;BME280;56054;50.968;5.816;2023-02-14T11:28:12;102477.97;;;10.57;82.31
68994;BME280;56054;50.968;5.816;2023-02-14T11:31:26;102472.06;;;10.49;86.28
68994;BME280;56054;50.968;5.816;2023-02-14T11:35:00;102466.81;;;10.39;88.76
68994;BME280;56054;50.968;5.816;2023-02-14T11:38:27;102459.53;;;10.83;83.18
68994;BME280;56054;50.968;5.816;2023-02-14T11:42:11;102456.41;;;10.87;83.33
68994;BME280;56054;50.968;5.816;2023-02-14T11:45:33;102450.47;;;10.98;84.53
68994;BME280;56054;50.968;5.816;2023-02-14T11:49:03;102439.75;;;10.85;84.69
68994;BME280;56054;50.968;5.816;2023-02-14T11:52:17;102439.28;;;10.99;84.52
68994;BME280;56054;50.968;5.816;2023-02-14T11:55:31;102437.00;;;11.12;79.20
68994;BME280;56054;50.968;5.816;2023-02-14T11:58:47;102420.53;;;11.43;78.56
68994;BME280;56054;50.968;5.816;2023-02-14T12:01:57;102417.81;;;11.41;78.70
68994;BME280;56054;50.968;5.816;2023-02-14T12:05:26;102411.97;;;11.44;76.34
68994;BME280;56054;50.968;5.816;2023-02-14T12:08:36;102409.06;;;11.51;75.00
68994;BME280;56054;50.968;5.816;2023-02-14T12:18:50;102391.50;;;11.28;74.83
68994;BME280;56054;50.968;5.816;2023-02-14T12:22:04;102390.69;;;11.29;75.96
68994;BME280;56054;50.968;5.816;2023-02-14T12:25:25;102377.97;;;11.22;75.50
68994;BME280;56054;50.968;5.816;2023-02-14T12:28:40;102382.44;;;11.53;73.82
68994;BME280;56054;50.968;5.816;2023-02-14T12:31:53;102377.97;;;11.63;73.53
68994;BME280;56054;50.968;5.816;2023-02-14T12:38:49;102375.00;;;11.99;70.40
68994;BME280;56054;50.968;5.816;2023-02-14T12:42:22;102352.97;;;12.06;69.77
68994;BME280;56054;50.968;5.816;2023-02-14T12:45:50;102355.34;;;12.03;68.62
68994;BME280;56054;50.968;5.816;2023-02-14T12:53:29;102343.44;;;12.59;65.61
68994;BME280;56054;50.968;5.816;2023-02-14T13:04:14;102331.16;;;12.58;66.84
68994;BME280;56054;50.968;5.816;2023-02-14T13:11:06;102328.63;;;12.92;64.49
68994;BME280;56054;50.968;5.816;2023-02-14T13:17:45;102317.13;;;12.46;66.91
68994;BME280;56054;50.968;5.816;2023-02-14T13:20:58;102317.78;;;12.43;68.80
68994;BME280;56054;50.968;5.816;2023-02-14T13:27:29;102305.13;;;12.48;69.86
68994;BME280;56054;50.968;5.816;2023-02-14T13:30:40;102298.78;;;12.44;68.20
68994;BME280;56054;50.968;5.816;2023-02-14T13:33:59;102294.94;;;12.51;68.34
68994;BME280;56054;50.968;5.816;2023-02-14T13:37:15;102294.75;;;12.37;68.30
68994;BME280;56054;50.968;5.816;2023-02-14T13:40:25;102289.91;;;12.42;67.39
68994;BME280;56054;50.968;5.816;2023-02-14T13:44:02;102287.06;;;12.39;67.35
68994;BME280;56054;50.968;5.816;2023-02-14T13:47:23;102281.66;;;12.48;69.02
68994;BME280;56054;50.968;5.816;2023-02-14T13:50:32;102281.47;;;12.34;68.82
68994;BME280;56054;50.968;5.816;2023-02-14T13:53:43;102272.34;;;12.61;68.66
68994;BME280;56054;50.968;5.816;2023-02-14T13:56:50;102272.81;;;12.46;69.21
68994;BME280;56054;50.968;5.816;2023-02-14T14:10:10;102276.00;;;12.31;80.01
68994;BME280;56054;50.968;5.816;2023-02-14T14:16:57;102263.34;;;12.36;80.90
68994;BME280;56054;50.968;5.816;2023-02-14T14:23:29;102264.34;;;12.16;79.89
68994;BME280;56054;50.968;5.816;2023-02-14T14:26:42;102259.38;;;12.19;79.94
68994;BME280;56054;50.968;5.816;2023-02-14T14:29:56;102253.16;;;12.17;80.66
68994;BME280;56054;50.968;5.816;2023-02-14T14:33:14;102265.66;;;12.11;81.14
68994;BME280;56054;50.968;5.816;2023-02-14T14:36:23;102255.50;;;12.14;81.53
68994;BME280;56054;50.968;5.816;2023-02-14T14:39:33;102253.69;;;12.13;81.39
68994;BME280;56054;50.968;5.816;2023-02-14T14:42:41;102254.09;;;12.07;80.46
68994;BME280;56054;50.968;5.816;2023-02-14T14:45:48;102254.44;;;12.12;80.42
68994;BME280;56054;50.968;5.816;2023-02-14T14:48:55;102248.22;;;12.10;80.01
68994;BME280;56054;50.968;5.816;2023-02-14T14:52:04;102243.31;;;12.03;80.69
68994;BME280;56054;50.968;5.816;2023-02-14T14:55:21;102229.09;;;11.99;81.02
68994;BME280;56054;50.968;5.816;2023-02-14T14:58:40;102242.25;;;12.01;81.71
68994;BME280;56054;50.968;5.816;2023-02-14T15:01:48;102238.63;;;11.98;81.40
68994;BME280;56054;50.968;5.816;2023-02-14T15:04:55;102239.28;;;11.96;81.76
68994;BME280;56054;50.968;5.816;2023-02-14T15:08:34;102237.09;;;11.90;81.54
68994;BME280;56054;50.968;5.816;2023-02-14T15:11:44;102242.41;;;11.82;82.85
68994;BME280;56054;50.968;5.816;2023-02-14T15:14:52;102246.19;;;11.85;82.00
68994;BME280;56054;50.968;5.816;2023-02-14T15:18:04;102235.69;;;11.73;82.77
68994;BME280;56054;50.968;5.816;2023-02-14T15:25:29;102230.84;;;11.68;82.89
68994;BME280;56054;50.968;5.816;2023-02-14T15:29:00;102227.91;;;11.63;83.83
68994;BME280;56054;50.968;5.816;2023-02-14T15:32:11;102238.16;;;11.62;81.20
68994;BME280;56054;50.968;5.816;2023-02-14T15:35:33;102241.19;;;11.56;81.37
68994;BME280;56054;50.968;5.816;2023-02-14T15:38:45;102245.59;;;11.57;80.51
68994;BME280;56054;50.968;5.816;2023-02-14T15:41:52;102236.88;;;11.56;81.04
68994;BME280;56054;50.968;5.816;2023-02-14T15:45:37;102243.78;;;11.46;81.75
68994;BME280;56054;50.968;5.816;2023-02-14T15:49:13;102249.41;;;11.40;82.32
68994;BME280;56054;50.968;5.816;2023-02-14T15:52:21;102243.28;;;11.40;81.66
68994;BME280;56054;50.968;5.816;2023-02-14T15:55:31;102236.78;;;11.34;81.84
68994;BME280;56054;50.968;5.816;2023-02-14T15:58:39;102241.34;;;11.27;81.76
68994;BME280;56054;50.968;5.816;2023-02-14T16:01:56;102231.59;;;11.24;82.54
68994;BME280;56054;50.968;5.816;2023-02-14T16:05:18;102230.41;;;11.21;81.89
68994;BME280;56054;50.968;5.816;2023-02-14T16:08:41;102223.13;;;11.17;82.41
68994;BME280;56054;50.968;5.816;2023-02-14T16:12:15;102227.81;;;11.10;81.85
68994;BME280;56054;50.968;5.816;2023-02-14T16:15:39;102221.56;;;11.08;82.24
68994;BME280;56054;50.968;5.816;2023-02-14T16:19:37;102227.56;;;11.07;83.28
68994;BME280;56054;50.968;5.816;2023-02-14T16:22:44;102223.78;;;11.04;84.40
68994;BME280;56054;50.968;5.816;2023-02-14T16:25:52;102228.59;;;10.89;86.42
68994;BME280;56054;50.968;5.816;2023-02-14T16:29:13;102232.22;;;10.81;87.69
68994;BME280;56054;50.968;5.816;2023-02-14T16:32:24;102237.94;;;10.77;89.32
68994;BME280;56054;50.968;5.816;2023-02-14T16:35:34;102225.72;;;10.76;89.75
68994;BME280;56054;50.968;5.816;2023-02-14T16:38:47;102226.34;;;10.63;90.92
68994;BME280;56054;50.968;5.816;2023-02-14T16:42:16;102227.63;;;10.58;91.29
68994;BME280;56054;50.968;5.816;2023-02-14T16:45:26;102236.59;;;10.51;91.71
68994;BME280;56054;50.968;5.816;2023-02-14T16:48:37;102235.16;;;10.44;92.04
68994;BME280;56054;50.968;5.816;2023-02-14T16:51:45;102231.88;;;10.37;91.93
68994;BME280;56054;50.968;5.816;2023-02-14T16:54:53;102228.72;;;10.31;92.27
68994;BME280;56054;50.968;5.816;2023-02-14T16:58:01;102242.69;;;10.22;92.05
68994;BME280;56054;50.968;5.816;2023-02-14T17:01:08;102238.41;;;10.23;91.89
68994;BME280;56054;50.968;5.816;2023-02-14T17:04:18;102240.19;;;10.14;92.33
68994;BME280;56054;50.968;5.816;2023-02-14T17:07:27;102238.88;;;10.08;92.61
68994;BME280;56054;50.968;5.816;2023-02-14T17:10:36;102242.59;;;10.02;92.94
68994;BME280;56054;50.968;5.816;2023-02-14T17:14:11;102249.59;;;9.93;94.17
68994;BME280;56054;50.968;5.816;2023-02-14T17:17:20;102244.81;;;9.97;93.69
68994;BME280;56054;50.968;5.816;2023-02-14T17:20:28;102248.88;;;9.85;94.15
68994;BME280;56054;50.968;5.816;2023-02-14T17:23:35;102245.88;;;9.80;94.72
68994;BME280;56054;50.968;5.816;2023-02-14T17:26:42;102248.41;;;9.70;95.55
68994;BME280;56054;50.968;5.816;2023-02-14T17:29:51;102249.97;;;9.68;95.37
68994;BME280;56054;50.968;5.816;2023-02-14T17:33:01;102257.47;;;9.65;96.17
68994;BME280;56054;50.968;5.816;2023-02-14T17:36:11;102254.31;;;9.59;96.23
68994;BME280;56054;50.968;5.816;2023-02-14T17:39:18;102241.97;;;9.56;96.75
68994;BME280;56054;50.968;5.816;2023-02-14T17:42:32;102250.50;;;9.74;100.00
68994;BME280;56054;50.968;5.816;2023-02-14T17:45:49;102247.72;;;9.43;97.93
68994;BME280;56054;50.968;5.816;2023-02-14T17:49:35;102230.69;;;9.37;98.60
68994;BME280;56054;50.968;5.816;2023-02-14T17:52:43;102232.69;;;9.31;99.17
68994;BME280;56054;50.968;5.816;2023-02-14T17:55:49;102249.06;;;9.30;99.18
68994;BME280;56054;50.968;5.816;2023-02-14T17:58:56;102244.75;;;9.11;99.80
68994;BME280;56054;50.968;5.816;2023-02-14T18:02:24;102242.22;;;9.03;100.00
68994;BME280;56054;50.968;5.816;2023-02-14T18:05:37;102246.28;;;8.82;100.00
68994;BME280;56054;50.968;5.816;2023-02-14T18:09:03;102245.38;;;8.81;100.00
68994;BME280;56054;50.968;5.816;2023-02-14T18:12:17;102246.22;;;8.63;100.00
68994;BME280;56054;50.968;5.816;2023-02-14T18:15:35;102236.91;;;8.73;100.00
68994;BME280;56054;50.968;5.816;2023-02-14T18:18:53;102238.94;;;8.59;100.00
68994;BME280;56054;50.968;5.816;2023-02-14T18:22:03;102245.97;;;8.51;100.00
68994;BME280;56054;50.968;5.816;2023-02-14T18:25:10;102242.34;;;8.49;100.00
68994;BME280;56054;50.968;5.816;2023-02-14T18:28:19;102234.41;;;8.39;100.00
68994;BME280;56054;50.968;5.816;2023-02-14T18:31:26;102233.97;;;8.43;100.00
68994;BME280;56054;50.968;5.816;2023-02-14T18:34:35;102225.91;;;8.40;100.00
68994;BME280;56054;50.968;5.816;2023-02-14T18:37:45;102230.97;;;8.21;100.00
68994;BME280;56054;50.968;5.816;2023-02-14T18:40:54;102219.06;;;8.23;100.00
68994;BME280;56054;50.968;5.816;2023-02-14T18:44:01;102217.91;;;8.10;100.00
68994;BME280;56054;50.968;5.816;2023-02-14T18:47:08;102214.13;;;7.98;100.00
68994;BME280;56054;50.968;5.816;2023-02-14T18:50:15;102214.91;;;7.88;100.00
68994;BME280;56054;50.968;5.816;2023-02-14T18:53:22;102216.41;;;7.95;100.00
68994;BME280;56054;50.968;5.816;2023-02-14T18:56:36;102207.88;;;7.87;100.00
68994;BME280;56054;50.968;5.816;2023-02-14T18:59:43;102210.63;;;7.80;100.00
68994;BME280;56054;50.968;5.816;2023-02-14T19:02:50;102216.00;;;7.73;100.00
68994;BME280;56054;50.968;5.816;2023-02-14T19:06:01;102196.50;;;7.68;100.00